sensor_id;sensor_type;location;lat;lon;timestamp;pressure;altitude;pressure_sealevel;temperature;humidity
55733;BME280;41637;52.364;9.910;2024-01-06T00:00:32;99523.69;;;5.17;100.00
55733;BME280;41637;52.364;9.910;2024-01-06T00:02:59;99523.69;;;5.17;100.00
55733;BME280;41637;52.364;9.910;2024-01-06T00:05:25;99525.31;;;5.18;100.00
55733;BME280;41637;52.364;9.910;2024-01-06T00:07:52;99525.31;;;5.18;100.00
55733;BME280;41637;52.364;9.910;2024-01-06T00:10:19;99523.34;;;5.20;100.00
55733;BME280;41637;52.364;9.910;2024-01-06T00:12:46;99530.25;;;5.21;100.00
55733;BME280;41637;52.364;9.910;2024-01-06T00:15:13;99528.59;;;5.20;100.00
55733;BME280;41637;52.364;9.910;2024-01-06T00:17:40;99529.44;;;5.21;100.00
55733;BME280;41637;52.364;9.910;2024-01-06T00:20:07;99533.84;;;5.20;100.00
55733;BME280;41637;52.364;9.910;2024-01-06T00:22:34;99536.50;;;5.20;100.00
55733;BME280;41637;52.364;9.910;2024-01-06T00:25:02;99537.50;;;5.19;100.00
55733;BME280;41637;52.364;9.910;2024-01-06T00:27:28;99538.31;;;5.20;100.00
55733;BME280;41637;52.364;9.910;2024-01-06T00:29:55;99542.41;;;5.22;100.00
55733;BME280;41637;52.364;9.910;2024-01-06T00:32:22;99546.84;;;5.22;100.00
55733;BME280;41637;52.364;9.910;2024-01-06T00:34:48;99550.28;;;5.22;100.00
55733;BME280;41637;52.364;9.910;2024-01-06T00:37:15;99545.03;;;5.22;100.00
55733;BME280;41637;52.364;9.910;2024-01-06T00:39:42;99542.41;;;5.22;100.00
55733;BME280;41637;52.364;9.910;2024-01-06T00:42:09;99547.00;;;5.20;100.00
55733;BME280;41637;52.364;9.910;2024-01-06T00:44:36;99546.84;;;5.22;100.00
55733;BME280;41637;52.364;9.910;2024-01-06T00:47:03;99552.91;;;5.22;100.00
55733;BME280;41637;52.364;9.910;2024-01-06T00:49:30;99549.31;;;5.23;100.00
55733;BME280;41637;52.364;9.910;2024-01-06T00:51:57;99547.66;;;5.22;100.00
55733;BME280;41637;52.364;9.910;2024-01-06T00:54:23;99553.44;;;5.18;100.00
55733;BME280;41637;52.364;9.910;2024-01-06T00:56:50;99562.31;;;5.17;100.00
55733;BME280;41637;52.364;9.910;2024-01-06T00:59:19;99552.78;;;5.16;100.00
55733;BME280;41637;52.364;9.910;2024-01-06T01:01:46;99565.25;;;5.14;100.00
55733;BME280;41637;52.364;9.910;2024-01-06T01:04:13;99553.13;;;5.13;100.00
55733;BME280;41637;52.364;9.910;2024-01-06T01:06:39;99562.63;;;5.14;100.00
55733;BME280;41637;52.364;9.910;2024-01-06T01:09:06;99570.69;;;5.12;100.00
55733;BME280;41637;52.364;9.910;2024-01-06T01:11:33;99573.81;;;5.16;100.00
55733;BME280;41637;52.364;9.910;2024-01-06T01:13:59;99573.00;;;5.15;100.00
55733;BME280;41637;52.364;9.910;2024-01-06T01:16:26;99574.63;;;5.16;100.00
55733;BME280;41637;52.364;9.910;2024-01-06T01:18:53;99574.81;;;5.15;100.00
55733;BME280;41637;52.364;9.910;2024-01-06T01:21:20;99580.72;;;5.17;100.00
55733;BME280;41637;52.364;9.910;2024-01-06T01:23:46;99585.13;;;5.16;100.00
55733;BME280;41637;52.364;9.910;2024-01-06T01:26:13;99592.84;;;5.18;100.00
55733;BME280;41637;52.364;9.910;2024-01-06T01:28:40;99594.50;;;5.19;100.00
55733;BME280;41637;52.364;9.910;2024-01-06T01:31:06;99581.53;;;5.17;100.00
55733;BME280;41637;52.364;9.910;2024-01-06T01:33:33;99597.31;;;5.17;100.00
55733;BME280;41637;52.364;9.910;2024-01-06T01:36:00;99601.91;;;5.15;100.00
55733;BME280;41637;52.364;9.910;2024-01-06T01:38:28;99598.47;;;5.15;100.00
55733;BME280;41637;52.364;9.910;2024-01-06T01:40:55;99597.63;;;5.14;100.00
55733;BME280;41637;52.364;9.910;2024-01-06T01:43:21;99592.56;;;5.13;100.00
55733;BME280;41637;52.364;9.910;2024-01-06T01:45:58;99599.59;;;5.12;100.00
55733;BME280;41637;52.364;9.910;2024-01-06T01:48:25;99601.09;;;5.15;100.00
55733;BME280;41637;52.364;9.910;2024-01-06T01:50:53;99607.16;;;5.15;100.00
55733;BME280;41637;52.364;9.910;2024-01-06T01:53:20;99598.63;;;5.13;100.00
55733;BME280;41637;52.364;9.910;2024-01-06T01:55:48;99604.69;;;5.14;100.00
55733;BME280;41637;52.364;9.910;2024-01-06T01:58:15;99608.13;;;5.14;100.00
55733;BME280;41637;52.364;9.910;2024-01-06T02:00:42;99606.84;;;5.10;100.00
55733;BME280;41637;52.364;9.910;2024-01-06T02:03:11;99601.59;;;5.10;100.00
55733;BME280;41637;52.364;9.910;2024-01-06T02:05:39;99609.50;;;5.10;100.00
55733;BME280;41637;52.364;9.910;2024-01-06T02:08:06;99607.81;;;5.09;100.00
55733;BME280;41637;52.364;9.910;2024-01-06T02:10:33;99612.44;;;5.07;100.00
55733;BME280;41637;52.364;9.910;2024-01-06T02:13:10;99610.81;;;5.06;100.00
55733;BME280;41637;52.364;9.910;2024-01-06T02:15:37;99608.16;;;5.06;100.00
55733;BME280;41637;52.364;9.910;2024-01-06T02:18:05;99617.03;;;5.05;100.00
55733;BME280;41637;52.364;9.910;2024-01-06T02:20:32;99610.97;;;5.04;100.00
55733;BME280;41637;52.364;9.910;2024-01-06T02:22:59;99623.28;;;5.04;100.00
55733;BME280;41637;52.364;9.910;2024-01-06T02:25:27;99626.88;;;5.03;100.00
55733;BME280;41637;52.364;9.910;2024-01-06T02:27:55;99626.88;;;5.03;100.00
55733;BME280;41637;52.364;9.910;2024-01-06T02:30:21;99630.50;;;5.02;100.00
55733;BME280;41637;52.364;9.910;2024-01-06T02:32:48;99625.25;;;5.02;100.00
55733;BME280;41637;52.364;9.910;2024-01-06T02:35:15;99629.66;;;5.01;100.00
55733;BME280;41637;52.364;9.910;2024-01-06T02:37:41;99633.16;;;5.02;100.00
55733;BME280;41637;52.364;9.910;2024-01-06T02:40:09;99637.41;;;5.03;100.00
55733;BME280;41637;52.364;9.910;2024-01-06T02:42:35;99642.66;;;5.03;100.00
55733;BME280;41637;52.364;9.910;2024-01-06T02:45:03;99645.44;;;5.01;100.00
55733;BME280;41637;52.364;9.910;2024-01-06T02:47:29;99643.81;;;5.00;100.00
55733;BME280;41637;52.364;9.910;2024-01-06T02:49:56;99643.00;;;5.00;100.00
55733;BME280;41637;52.364;9.910;2024-01-06T02:52:23;99644.13;;;4.97;100.00
55733;BME280;41637;52.364;9.910;2024-01-06T02:54:49;99650.38;;;4.96;100.00
55733;BME280;41637;52.364;9.910;2024-01-06T02:57:18;99648.09;;;4.93;100.00
55733;BME280;41637;52.364;9.910;2024-01-06T02:59:45;99657.75;;;4.93;100.00
55733;BME280;41637;52.364;9.910;2024-01-06T03:02:11;99644.63;;;4.93;100.00
55733;BME280;41637;52.364;9.910;2024-01-06T03:04:38;99652.69;;;4.91;100.00
55733;BME280;41637;52.364;9.910;2024-01-06T03:07:05;99654.47;;;4.90;100.00
55733;BME280;41637;52.364;9.910;2024-01-06T03:09:31;99657.09;;;4.90;100.00
55733;BME280;41637;52.364;9.910;2024-01-06T03:11:58;99662.53;;;4.89;100.00
55733;BME280;41637;52.364;9.910;2024-01-06T03:14:25;99664.50;;;4.87;100.00
55733;BME280;41637;52.364;9.910;2024-01-06T03:16:52;99660.38;;;4.84;100.00
55733;BME280;41637;52.364;9.910;2024-01-06T03:19:19;99668.59;;;4.81;100.00
55733;BME280;41637;52.364;9.910;2024-01-06T03:21:46;99664.97;;;4.82;100.00
55733;BME280;41637;52.364;9.910;2024-01-06T03:24:12;99670.56;;;4.79;100.00
55733;BME280;41637;52.364;9.910;2024-01-06T03:26:39;99669.75;;;4.79;100.00
55733;BME280;41637;52.364;9.910;2024-01-06T03:29:06;99676.81;;;4.78;100.00
55733;BME280;41637;52.364;9.910;2024-01-06T03:31:32;99677.63;;;4.79;100.00
55733;BME280;41637;52.364;9.910;2024-01-06T03:33:59;99678.78;;;4.76;100.00
55733;BME280;41637;52.364;9.910;2024-01-06T03:36:26;99673.53;;;4.76;100.00
55733;BME280;41637;52.364;9.910;2024-01-06T03:38:53;99683.19;;;4.76;100.00
55733;BME280;41637;52.364;9.910;2024-01-06T03:41:20;99682.38;;;4.75;100.00
55733;BME280;41637;52.364;9.910;2024-01-06T03:43:46;99687.50;;;4.77;100.00
55733;BME280;41637;52.364;9.910;2024-01-06T03:46:13;99689.31;;;4.76;100.00
55733;BME280;41637;52.364;9.910;2024-01-06T03:48:40;99689.31;;;4.76;100.00
55733;BME280;41637;52.364;9.910;2024-01-06T03:51:07;99698.16;;;4.75;100.00
55733;BME280;41637;52.364;9.910;2024-01-06T03:53:34;99693.91;;;4.74;100.00
55733;BME280;41637;52.364;9.910;2024-01-06T03:56:00;99694.72;;;4.75;100.00
55733;BME280;41637;52.364;9.910;2024-01-06T03:58:27;99686.69;;;4.76;100.00
55733;BME280;41637;52.364;9.910;2024-01-06T04:00:54;99692.91;;;4.75;100.00
55733;BME280;41637;52.364;9.910;2024-01-06T04:03:21;99693.91;;;4.74;100.00
55733;BME280;41637;52.364;9.910;2024-01-06T04:05:47;99697.66;;;4.72;100.00
55733;BME280;41637;52.364;9.910;2024-01-06T04:08:14;99696.84;;;4.71;100.00
55733;BME280;41637;52.364;9.910;2024-01-06T04:10:41;99702.41;;;4.68;100.00
55733;BME280;41637;52.364;9.910;2024-01-06T04:13:08;99708.50;;;4.68;100.00
55733;BME280;41637;52.364;9.910;2024-01-06T04:15:35;99711.25;;;4.67;100.00
55733;BME280;41637;52.364;9.910;2024-01-06T04:18:03;99713.91;;;4.67;100.00
55733;BME280;41637;52.364;9.910;2024-01-06T04:20:31;99718.47;;;4.65;100.00
55733;BME280;41637;52.364;9.910;2024-01-06T04:22:58;99712.41;;;4.64;100.00
55733;BME280;41637;52.364;9.910;2024-01-06T04:25:25;99718.66;;;4.63;100.00
55733;BME280;41637;52.364;9.910;2024-01-06T04:27:52;99721.44;;;4.62;100.00
55733;BME280;41637;52.364;9.910;2024-01-06T04:30:19;99726.69;;;4.62;100.00
55733;BME280;41637;52.364;9.910;2024-01-06T04:32:47;99726.84;;;4.60;100.00
55733;BME280;41637;52.364;9.910;2024-01-06T04:35:17;99730.63;;;4.58;100.00
55733;BME280;41637;52.364;9.910;2024-01-06T04:37:43;99735.22;;;4.56;100.00
55733;BME280;41637;52.364;9.910;2024-01-06T04:40:11;99737.84;;;4.56;100.00
55733;BME280;41637;52.364;9.910;2024-01-06T04:42:38;99746.69;;;4.55;100.00
55733;BME280;41637;52.364;9.910;2024-01-06T04:45:05;99756.06;;;4.57;100.00
55733;BME280;41637;52.364;9.910;2024-01-06T04:47:32;99754.25;;;4.58;100.00
55733;BME280;41637;52.364;9.910;2024-01-06T04:49:59;99757.72;;;4.58;100.00
55733;BME280;41637;52.364;9.910;2024-01-06T04:52:26;99756.75;;;4.59;100.00
55733;BME280;41637;52.364;9.910;2024-01-06T04:54:53;99750.66;;;4.59;100.00
55733;BME280;41637;52.364;9.910;2024-01-06T04:57:19;99762.16;;;4.58;100.00
55733;BME280;41637;52.364;9.910;2024-01-06T04:59:47;99757.72;;;4.58;100.00
55733;BME280;41637;52.364;9.910;2024-01-06T05:02:14;99763.63;;;4.60;100.00
55733;BME280;41637;52.364;9.910;2024-01-06T05:04:41;99759.19;;;4.61;100.00
55733;BME280;41637;52.364;9.910;2024-01-06T05:07:08;99758.06;;;4.63;100.00
55733;BME280;41637;52.364;9.910;2024-01-06T05:09:34;99760.69;;;4.63;100.00
55733;BME280;41637;52.364;9.910;2024-01-06T05:12:01;99759.56;;;4.66;100.00
55733;BME280;41637;52.364;9.910;2024-01-06T05:14:28;99762.19;;;4.66;100.00
55733;BME280;41637;52.364;9.910;2024-01-06T05:16:54;99765.78;;;4.65;100.00
55733;BME280;41637;52.364;9.910;2024-01-06T05:19:21;99769.41;;;4.64;100.00
55733;BME280;41637;52.364;9.910;2024-01-06T05:21:48;99779.91;;;4.64;100.00
55733;BME280;41637;52.364;9.910;2024-01-06T05:24:15;99788.75;;;4.63;100.00
55733;BME280;41637;52.364;9.910;2024-01-06T05:26:42;99785.16;;;4.64;100.00
55733;BME280;41637;52.364;9.910;2024-01-06T05:29:09;99784.34;;;4.63;100.00
55733;BME280;41637;52.364;9.910;2024-01-06T05:31:35;99787.13;;;4.62;100.00
55733;BME280;41637;52.364;9.910;2024-01-06T05:34:02;99793.19;;;4.62;100.00
55733;BME280;41637;52.364;9.910;2024-01-06T05:36:29;99795.97;;;4.61;100.00
55733;BME280;41637;52.364;9.910;2024-01-06T05:38:56;99802.06;;;4.61;100.00
55733;BME280;41637;52.364;9.910;2024-01-06T05:41:22;99799.25;;;4.63;100.00
55733;BME280;41637;52.364;9.910;2024-01-06T05:43:49;99798.94;;;4.66;100.00
55733;BME280;41637;52.364;9.910;2024-01-06T05:46:24;99798.94;;;4.66;100.00
55733;BME280;41637;52.364;9.910;2024-01-06T05:48:51;99795.66;;;4.64;100.00
55733;BME280;41637;52.364;9.910;2024-01-06T05:51:18;99801.88;;;4.63;100.00
55733;BME280;41637;52.364;9.910;2024-01-06T05:53:45;99802.06;;;4.61;100.00
55733;BME280;41637;52.364;9.910;2024-01-06T05:56:18;99798.78;;;4.59;100.00
55733;BME280;41637;52.364;9.910;2024-01-06T05:58:48;99799.88;;;4.57;100.00
55733;BME280;41637;52.364;9.910;2024-01-06T06:01:14;99814.00;;;4.56;100.00
55733;BME280;41637;52.364;9.910;2024-01-06T06:03:41;99817.59;;;4.55;100.00
55733;BME280;41637;52.364;9.910;2024-01-06T06:06:08;99821.88;;;4.56;100.00
55733;BME280;41637;52.364;9.910;2024-01-06T06:08:34;99824.38;;;4.57;100.00
55733;BME280;41637;52.364;9.910;2024-01-06T06:11:01;99832.25;;;4.57;100.00
55733;BME280;41637;52.364;9.910;2024-01-06T06:13:28;99836.66;;;4.57;100.00
55733;BME280;41637;52.364;9.910;2024-01-06T06:15:55;99838.63;;;4.55;100.00
55733;BME280;41637;52.364;9.910;2024-01-06T06:18:22;99841.25;;;4.55;100.00
55733;BME280;41637;52.364;9.910;2024-01-06T06:20:49;99846.50;;;4.55;100.00
55733;BME280;41637;52.364;9.910;2024-01-06T06:23:15;99847.34;;;4.55;100.00
55733;BME280;41637;52.364;9.910;2024-01-06T06:25:42;99850.78;;;4.56;100.00
55733;BME280;41637;52.364;9.910;2024-01-06T06:28:09;99857.66;;;4.57;100.00
55733;BME280;41637;52.364;9.910;2024-01-06T06:30:36;99867.34;;;4.56;100.00
55733;BME280;41637;52.364;9.910;2024-01-06T06:33:02;99870.13;;;4.55;100.00
55733;BME280;41637;52.364;9.910;2024-01-06T06:35:29;99871.94;;;4.54;100.00
55733;BME280;41637;52.364;9.910;2024-01-06T06:37:56;99870.13;;;4.55;100.00
55733;BME280;41637;52.364;9.910;2024-01-06T06:40:23;99884.94;;;4.56;100.00
55733;BME280;41637;52.364;9.910;2024-01-06T06:42:50;99885.06;;;4.54;100.00
55733;BME280;41637;52.364;9.910;2024-01-06T06:45:17;99892.81;;;4.56;100.00
55733;BME280;41637;52.364;9.910;2024-01-06T06:47:47;99892.00;;;4.55;100.00
55733;BME280;41637;52.364;9.910;2024-01-06T06:50:13;99899.69;;;4.57;100.00
55733;BME280;41637;52.364;9.910;2024-01-06T06:52:40;99902.31;;;4.57;100.00
55733;BME280;41637;52.364;9.910;2024-01-06T06:55:08;99903.47;;;4.54;100.00
55733;BME280;41637;52.364;9.910;2024-01-06T06:57:36;99906.63;;;4.58;100.00
55733;BME280;41637;52.364;9.910;2024-01-06T07:00:03;99908.56;;;4.56;100.00
55733;BME280;41637;52.364;9.910;2024-01-06T07:02:29;99913.81;;;4.56;100.00
55733;BME280;41637;52.364;9.910;2024-01-06T07:04:56;99908.72;;;4.54;100.00
55733;BME280;41637;52.364;9.910;2024-01-06T07:07:23;99918.41;;;4.54;100.00
55733;BME280;41637;52.364;9.910;2024-01-06T07:09:50;99915.78;;;4.54;100.00
55733;BME280;41637;52.364;9.910;2024-01-06T07:12:16;99922.66;;;4.55;100.00
55733;BME280;41637;52.364;9.910;2024-01-06T07:14:43;99923.66;;;4.54;100.00
55733;BME280;41637;52.364;9.910;2024-01-06T07:17:10;99922.16;;;4.51;100.00
55733;BME280;41637;52.364;9.910;2024-01-06T07:19:38;99925.75;;;4.50;100.00
55733;BME280;41637;52.364;9.910;2024-01-06T07:22:04;99933.81;;;4.48;100.00
55733;BME280;41637;52.364;9.910;2024-01-06T07:24:33;99937.72;;;4.44;100.00
55733;BME280;41637;52.364;9.910;2024-01-06T07:26:59;99936.38;;;4.40;100.00
55733;BME280;41637;52.364;9.910;2024-01-06T07:29:26;99932.75;;;4.41;100.00
55733;BME280;41637;52.364;9.910;2024-01-06T07:31:52;99935.53;;;4.40;100.00
55733;BME280;41637;52.364;9.910;2024-01-06T07:34:19;99957.38;;;4.40;100.00
55733;BME280;41637;52.364;9.910;2024-01-06T07:36:46;99951.28;;;4.40;100.00
55733;BME280;41637;52.364;9.910;2024-01-06T07:39:13;99960.00;;;4.40;100.00
55733;BME280;41637;52.364;9.910;2024-01-06T07:41:40;99969.00;;;4.38;100.00
55733;BME280;41637;52.364;9.910;2024-01-06T07:44:06;99979.50;;;4.38;100.00
55733;BME280;41637;52.364;9.910;2024-01-06T07:46:33;99975.38;;;4.35;100.00
55733;BME280;41637;52.364;9.910;2024-01-06T07:49:01;99989.38;;;4.36;100.00
55733;BME280;41637;52.364;9.910;2024-01-06T07:51:28;99983.13;;;4.37;100.00
55733;BME280;41637;52.364;9.910;2024-01-06T07:53:55;99994.75;;;4.34;100.00
55733;BME280;41637;52.364;9.910;2024-01-06T07:56:21;99997.53;;;4.33;100.00
55733;BME280;41637;52.364;9.910;2024-01-06T07:58:48;99992.94;;;4.35;100.00
55733;BME280;41637;52.364;9.910;2024-01-06T08:01:15;99989.50;;;4.34;100.00
55733;BME280;41637;52.364;9.910;2024-01-06T08:03:42;99987.38;;;4.38;100.00
55733;BME280;41637;52.364;9.910;2024-01-06T08:06:10;100002.16;;;4.39;100.00
55733;BME280;41637;52.364;9.910;2024-01-06T08:08:37;100001.34;;;4.38;100.00
55733;BME280;41637;52.364;9.910;2024-01-06T08:11:03;100012.81;;;4.37;100.00
55733;BME280;41637;52.364;9.910;2024-01-06T08:13:30;100013.00;;;4.36;100.00
55733;BME280;41637;52.364;9.910;2024-01-06T08:15:56;100023.63;;;4.34;100.00
55733;BME280;41637;52.364;9.910;2024-01-06T08:18:23;100027.91;;;4.35;100.00
55733;BME280;41637;52.364;9.910;2024-01-06T08:20:50;100026.94;;;4.36;100.00
55733;BME280;41637;52.364;9.910;2024-01-06T08:23:17;100040.56;;;4.40;100.00
55733;BME280;41637;52.364;9.910;2024-01-06T08:25:45;100030.59;;;4.43;100.00
55733;BME280;41637;52.364;9.910;2024-01-06T08:28:13;100030.59;;;4.43;100.00
55733;BME280;41637;52.364;9.910;2024-01-06T08:30:41;100037.53;;;4.44;100.00
55733;BME280;41637;52.364;9.910;2024-01-06T08:33:08;100045.69;;;4.41;99.64
55733;BME280;41637;52.364;9.910;2024-01-06T08:35:34;100053.56;;;4.41;99.55
55733;BME280;41637;52.364;9.910;2024-01-06T08:38:07;100060.47;;;4.42;99.98
55733;BME280;41637;52.364;9.910;2024-01-06T08:40:34;100067.38;;;4.43;99.86
55733;BME280;41637;52.364;9.910;2024-01-06T08:43:02;100064.88;;;4.42;99.65
55733;BME280;41637;52.364;9.910;2024-01-06T08:45:29;100078.69;;;4.44;99.56
55733;BME280;41637;52.364;9.910;2024-01-06T08:47:57;100081.50;;;4.42;99.70
55733;BME280;41637;52.364;9.910;2024-01-06T08:50:23;100081.50;;;4.42;99.46
55733;BME280;41637;52.364;9.910;2024-01-06T08:52:50;100088.38;;;4.43;99.68
55733;BME280;41637;52.364;9.910;2024-01-06T08:55:17;100081.50;;;4.42;99.48
55733;BME280;41637;52.364;9.910;2024-01-06T08:57:43;100085.38;;;4.38;99.36
55733;BME280;41637;52.364;9.910;2024-01-06T09:00:11;100088.00;;;4.38;99.45
55733;BME280;41637;52.364;9.910;2024-01-06T09:02:38;100099.47;;;4.37;99.61
55733;BME280;41637;52.364;9.910;2024-01-06T09:05:05;100097.84;;;4.36;99.31
55733;BME280;41637;52.364;9.910;2024-01-06T09:07:31;100102.28;;;4.36;99.18
55733;BME280;41637;52.364;9.910;2024-01-06T09:09:58;100116.38;;;4.35;99.45
55733;BME280;41637;52.364;9.910;2024-01-06T09:12:26;100123.28;;;4.36;99.40
55733;BME280;41637;52.364;9.910;2024-01-06T09:14:52;100131.00;;;4.37;99.21
55733;BME280;41637;52.364;9.910;2024-01-06T09:17:19;100132.94;;;4.35;99.06
55733;BME280;41637;52.364;9.910;2024-01-06T09:19:46;100131.31;;;4.34;99.13
55733;BME280;41637;52.364;9.910;2024-01-06T09:22:14;100138.34;;;4.34;99.31
55733;BME280;41637;52.364;9.910;2024-01-06T09:24:41;100137.38;;;4.35;99.29
55733;BME280;41637;52.364;9.910;2024-01-06T09:27:08;100145.09;;;4.36;99.32
55733;BME280;41637;52.364;9.910;2024-01-06T09:29:34;100146.47;;;4.40;99.60
55733;BME280;41637;52.364;9.910;2024-01-06T09:32:01;100150.44;;;4.44;99.17
55733;BME280;41637;52.364;9.910;2024-01-06T09:34:28;100165.22;;;4.45;99.03
55733;BME280;41637;52.364;9.910;2024-01-06T09:36:55;100167.84;;;4.45;98.71
55733;BME280;41637;52.364;9.910;2024-01-06T09:39:22;100157.47;;;4.44;98.66
55733;BME280;41637;52.364;9.910;2024-01-06T09:41:49;100164.53;;;4.43;98.59
55733;BME280;41637;52.364;9.910;2024-01-06T09:44:16;100167.97;;;4.44;98.55
55733;BME280;41637;52.364;9.910;2024-01-06T09:46:44;100171.59;;;4.43;98.37
55733;BME280;41637;52.364;9.910;2024-01-06T09:49:11;100168.97;;;4.43;98.50
55733;BME280;41637;52.364;9.910;2024-01-06T09:51:40;100171.59;;;4.43;98.39
55733;BME280;41637;52.364;9.910;2024-01-06T09:54:12;100170.78;;;4.42;98.52
55733;BME280;41637;52.364;9.910;2024-01-06T09:56:39;100170.78;;;4.42;98.38
55733;BME280;41637;52.364;9.910;2024-01-06T09:59:05;100177.00;;;4.41;98.29
55733;BME280;41637;52.364;9.910;2024-01-06T10:01:32;100172.41;;;4.43;98.55
55733;BME280;41637;52.364;9.910;2024-01-06T10:03:59;100175.59;;;4.47;98.43
55733;BME280;41637;52.364;9.910;2024-01-06T10:06:25;100173.50;;;4.51;98.50
55733;BME280;41637;52.364;9.910;2024-01-06T10:08:53;100173.19;;;4.54;98.33
55733;BME280;41637;52.364;9.910;2024-01-06T10:11:22;100187.00;;;4.56;98.22
55733;BME280;41637;52.364;9.910;2024-01-06T10:13:50;100190.97;;;4.60;98.35
55733;BME280;41637;52.364;9.910;2024-01-06T10:16:21;100197.88;;;4.61;97.91
55733;BME280;41637;52.364;9.910;2024-01-06T10:18:48;100196.91;;;4.62;97.86
55733;BME280;41637;52.364;9.910;2024-01-06T10:21:21;100204.13;;;4.60;97.36
55733;BME280;41637;52.364;9.910;2024-01-06T10:23:49;100202.75;;;4.56;97.33
55733;BME280;41637;52.364;9.910;2024-01-06T10:26:15;100204.72;;;4.54;97.29
55733;BME280;41637;52.364;9.910;2024-01-06T10:28:42;100202.66;;;4.47;97.21
55733;BME280;41637;52.364;9.910;2024-01-06T10:31:09;100209.72;;;4.47;97.43
55733;BME280;41637;52.364;9.910;2024-01-06T10:33:36;100208.22;;;4.44;97.31
55733;BME280;41637;52.364;9.910;2024-01-06T10:36:03;100209.03;;;4.45;97.44
55733;BME280;41637;52.364;9.910;2024-01-06T10:38:32;100208.91;;;4.46;97.77
55733;BME280;41637;52.364;9.910;2024-01-06T10:41:01;100210.25;;;4.51;97.80
55733;BME280;41637;52.364;9.910;2024-01-06T10:43:38;100208.28;;;4.53;97.85
55733;BME280;41637;52.364;9.910;2024-01-06T10:46:07;100208.00;;;4.56;97.85
55733;BME280;41637;52.364;9.910;2024-01-06T10:48:38;100208.69;;;4.58;97.82
55733;BME280;41637;52.364;9.910;2024-01-06T10:51:11;100218.22;;;4.59;97.28
55733;BME280;41637;52.364;9.910;2024-01-06T10:53:40;100220.16;;;4.57;96.93
55733;BME280;41637;52.364;9.910;2024-01-06T10:56:08;100224.59;;;4.56;97.15
55733;BME280;41637;52.364;9.910;2024-01-06T10:58:47;100229.03;;;4.56;96.85
55733;BME280;41637;52.364;9.910;2024-01-06T11:01:23;100236.09;;;4.55;97.03
55733;BME280;41637;52.364;9.910;2024-01-06T11:03:56;100231.94;;;4.53;96.92
55733;BME280;41637;52.364;9.910;2024-01-06T11:06:23;100236.38;;;4.52;96.83
55733;BME280;41637;52.364;9.910;2024-01-06T11:11:18;100235.44;;;4.43;96.29
55733;BME280;41637;52.364;9.910;2024-01-06T11:13:46;100236.56;;;4.41;96.46
55733;BME280;41637;52.364;9.910;2024-01-06T11:16:34;100237.69;;;4.38;96.44
55733;BME280;41637;52.364;9.910;2024-01-06T11:19:01;100238.81;;;4.36;96.55
55733;BME280;41637;52.364;9.910;2024-01-06T11:21:33;100239.09;;;4.33;96.60
55733;BME280;41637;52.364;9.910;2024-01-06T11:26:32;100232.78;;;4.25;96.29
55733;BME280;41637;52.364;9.910;2024-01-06T11:29:00;100240.25;;;4.20;96.44
55733;BME280;41637;52.364;9.910;2024-01-06T11:31:30;100236.13;;;4.18;96.80
55733;BME280;41637;52.364;9.910;2024-01-06T11:34:12;100237.94;;;4.17;96.67
55733;BME280;41637;52.364;9.910;2024-01-06T11:36:40;100241.69;;;4.15;96.70
55733;BME280;41637;52.364;9.910;2024-01-06T11:39:06;100240.13;;;4.12;96.60
55733;BME280;41637;52.364;9.910;2024-01-06T11:41:52;100240.56;;;4.07;96.71
55733;BME280;41637;52.364;9.910;2024-01-06T11:44:22;100237.13;;;4.07;96.70
55733;BME280;41637;52.364;9.910;2024-01-06T11:46:48;100240.06;;;4.04;96.77
55733;BME280;41637;52.364;9.910;2024-01-06T11:49:20;100234.25;;;4.00;96.91
55733;BME280;41637;52.364;9.910;2024-01-06T11:51:47;100232.59;;;3.99;96.65
55733;BME280;41637;52.364;9.910;2024-01-06T11:54:14;100232.59;;;3.99;96.83
55733;BME280;41637;52.364;9.910;2024-01-06T11:56:41;100227.34;;;3.99;97.10
55733;BME280;41637;52.364;9.910;2024-01-06T11:59:07;100229.41;;;4.05;97.25
55733;BME280;41637;52.364;9.910;2024-01-06T12:01:38;100232.31;;;4.02;96.64
55733;BME280;41637;52.364;9.910;2024-01-06T12:04:06;100238.53;;;4.01;96.52
55733;BME280;41637;52.364;9.910;2024-01-06T12:06:33;100234.81;;;4.04;96.94
55733;BME280;41637;52.364;9.910;2024-01-06T12:09:07;100239.22;;;4.03;96.66
55733;BME280;41637;52.364;9.910;2024-01-06T12:11:34;100245.31;;;4.04;96.50
55733;BME280;41637;52.364;9.910;2024-01-06T12:14:01;100248.34;;;3.99;96.20
55733;BME280;41637;52.364;9.910;2024-01-06T12:16:27;100247.66;;;3.97;96.48
55733;BME280;41637;52.364;9.910;2024-01-06T12:18:55;100244.34;;;3.95;96.47
55733;BME280;41637;52.364;9.910;2024-01-06T12:21:23;100245.19;;;3.96;96.48
55733;BME280;41637;52.364;9.910;2024-01-06T12:23:50;100254.59;;;3.88;96.69
55733;BME280;41637;52.364;9.910;2024-01-06T12:26:19;100261.63;;;3.88;96.34
55733;BME280;41637;52.364;9.910;2024-01-06T12:28:46;100266.34;;;3.84;96.29
55733;BME280;41637;52.364;9.910;2024-01-06T12:31:13;100265.50;;;3.84;96.64
55733;BME280;41637;52.364;9.910;2024-01-06T12:33:41;100263.88;;;3.83;96.51
55733;BME280;41637;52.364;9.910;2024-01-06T12:36:08;100269.38;;;3.80;96.81
55733;BME280;41637;52.364;9.910;2024-01-06T12:38:46;100276.44;;;3.79;96.71
55733;BME280;41637;52.364;9.910;2024-01-06T12:41:13;100265.13;;;3.79;96.54
55733;BME280;41637;52.364;9.910;2024-01-06T12:43:39;100276.31;;;3.81;96.89
55733;BME280;41637;52.364;9.910;2024-01-06T12:46:06;100269.94;;;3.83;96.80
55733;BME280;41637;52.364;9.910;2024-01-06T12:48:33;100271.75;;;3.83;96.73
55733;BME280;41637;52.364;9.910;2024-01-06T12:51:00;100272.69;;;3.82;96.61
55733;BME280;41637;52.364;9.910;2024-01-06T12:53:27;100275.75;;;3.77;96.64
55733;BME280;41637;52.364;9.910;2024-01-06T12:55:53;100274.38;;;3.73;96.79
55733;BME280;41637;52.364;9.910;2024-01-06T12:58:20;100273.56;;;3.73;96.71
55733;BME280;41637;52.364;9.910;2024-01-06T13:00:47;100272.44;;;3.75;96.95
55733;BME280;41637;52.364;9.910;2024-01-06T13:03:14;100278.81;;;3.73;97.04
55733;BME280;41637;52.364;9.910;2024-01-06T13:05:41;100288.31;;;3.74;97.07